createdAt,value
2024-05-09T00:00:02.319Z,100.00
2024-05-09T00:02:54.894Z,100.00
2024-05-09T00:05:42.028Z,100.00
2024-05-09T00:08:28.900Z,100.00
2024-05-09T00:11:16.417Z,100.00
2024-05-09T00:14:03.074Z,100.00
2024-05-09T00:16:49.756Z,100.00
2024-05-09T00:19:36.394Z,100.00
2024-05-09T00:22:22.848Z,100.00
2024-05-09T00:25:09.573Z,100.00
2024-05-09T00:27:56.154Z,100.00
2024-05-09T00:30:42.810Z,100.00
2024-05-09T00:33:29.662Z,100.00
2024-05-09T00:36:16.145Z,100.00
2024-05-09T00:39:02.792Z,100.00
2024-05-09T00:41:49.600Z,100.00
2024-05-09T00:44:36.292Z,100.00
2024-05-09T00:47:24.047Z,100.00
2024-05-09T00:50:15.992Z,100.00
2024-05-09T00:53:12.140Z,100.00
2024-05-09T00:55:59.317Z,100.00
2024-05-09T00:58:45.597Z,100.00
2024-05-09T01:01:32.389Z,100.00
2024-05-09T01:04:19.019Z,100.00
2024-05-09T01:07:05.512Z,100.00
2024-05-09T01:09:52.084Z,100.00
2024-05-09T01:12:39.118Z,100.00
2024-05-09T01:15:25.511Z,100.00
2024-05-09T01:18:13.526Z,100.00
2024-05-09T01:21:00.594Z,100.00
2024-05-09T01:23:47.216Z,100.00
2024-05-09T01:26:33.965Z,100.00
2024-05-09T01:29:20.598Z,100.00
2024-05-09T01:32:07.448Z,100.00
2024-05-09T01:34:53.818Z,100.00
2024-05-09T01:37:40.399Z,100.00
2024-05-09T01:40:36.364Z,100.00
2024-05-09T01:43:25.777Z,100.00
2024-05-09T01:46:16.515Z,100.00
2024-05-09T01:49:04.539Z,100.00
2024-05-09T01:51:51.185Z,100.00
2024-05-09T01:54:37.859Z,100.00
2024-05-09T01:57:24.455Z,100.00
2024-05-09T02:00:15.652Z,100.00
2024-05-09T02:03:02.538Z,100.00
2024-05-09T02:05:52.473Z,100.00
2024-05-09T02:08:39.524Z,100.00
2024-05-09T02:11:26.319Z,100.00
2024-05-09T02:14:13.130Z,100.00
2024-05-09T02:16:59.425Z,100.00
2024-05-09T02:19:46.056Z,100.00
2024-05-09T02:22:32.863Z,100.00
2024-05-09T02:25:21.218Z,100.00
2024-05-09T02:28:08.126Z,100.00
2024-05-09T02:30:54.638Z,100.00
2024-05-09T02:33:41.287Z,100.00
2024-05-09T02:36:27.792Z,100.00
2024-05-09T02:39:14.600Z,100.00
2024-05-09T02:42:01.139Z,100.00
2024-05-09T02:44:47.796Z,100.00
2024-05-09T02:47:34.669Z,100.00
2024-05-09T02:50:29.705Z,100.00
2024-05-09T02:53:23.422Z,100.00
2024-05-09T02:56:10.078Z,100.00
2024-05-09T02:58:56.870Z,100.00
2024-05-09T03:01:43.228Z,100.00
2024-05-09T03:04:29.646Z,100.00
2024-05-09T03:07:17.825Z,100.00
2024-05-09T03:10:12.205Z,100.00
2024-05-09T03:13:08.460Z,100.00
2024-05-09T03:15:55.033Z,100.00
2024-05-09T03:18:41.727Z,100.00
2024-05-09T03:21:28.336Z,100.00
2024-05-09T03:24:14.907Z,100.00
2024-05-09T03:27:02.500Z,100.00
2024-05-09T03:29:48.915Z,100.00
2024-05-09T03:32:35.651Z,100.00
2024-05-09T03:35:22.081Z,100.00
2024-05-09T03:38:08.723Z,100.00
2024-05-09T03:40:55.318Z,100.00
2024-05-09T03:43:41.946Z,100.00
2024-05-09T03:46:28.767Z,100.00
2024-05-09T03:49:15.513Z,100.00
2024-05-09T03:52:05.093Z,100.00
2024-05-09T03:54:51.739Z,100.00
2024-05-09T03:57:38.422Z,100.00
2024-05-09T04:00:31.576Z,100.00
2024-05-09T04:03:24.724Z,100.00
2024-05-09T04:06:11.915Z,100.00
2024-05-09T04:08:58.458Z,100.00
2024-05-09T04:11:45.184Z,100.00
2024-05-09T04:14:31.828Z,100.00
2024-05-09T04:17:18.413Z,100.00
2024-05-09T04:20:08.323Z,100.00
2024-05-09T04:22:54.786Z,100.00
2024-05-09T04:25:43.846Z,100.00
2024-05-09T04:28:30.198Z,100.00
2024-05-09T04:31:16.689Z,100.00
2024-05-09T04:34:03.461Z,100.00
2024-05-09T04:36:49.760Z,100.00
2024-05-09T04:39:36.474Z,100.00
2024-05-09T04:42:23.025Z,100.00
2024-05-09T04:45:09.591Z,100.00
2024-05-09T04:47:56.538Z,100.00
2024-05-09T04:50:43.542Z,100.00
2024-05-09T04:53:29.945Z,100.00
2024-05-09T04:56:16.700Z,100.00
2024-05-09T04:59:03.387Z,100.00
2024-05-09T05:01:50.020Z,100.00
2024-05-09T05:04:36.653Z,100.00
2024-05-09T05:07:23.372Z,100.00
2024-05-09T05:10:14.893Z,100.00
2024-05-09T05:13:21.002Z,100.00
2024-05-09T05:16:09.133Z,100.00
2024-05-09T05:18:56.374Z,100.00
2024-05-09T05:21:43.134Z,100.00
2024-05-09T05:24:29.617Z,94.29
2024-05-09T05:27:16.809Z,90.90
2024-05-09T05:30:04.618Z,86.35
2024-05-09T05:32:52.683Z,82.14
2024-05-09T05:35:39.784Z,81.93
2024-05-09T05:38:28.187Z,80.93
2024-05-09T05:41:15.441Z,82.38
2024-05-09T05:44:01.864Z,85.25
2024-05-09T05:46:48.537Z,90.15
2024-05-09T05:49:35.291Z,93.95
2024-05-09T05:52:21.692Z,96.78
2024-05-09T05:55:08.171Z,97.74
2024-05-09T05:57:54.836Z,98.35
2024-05-09T06:00:42.678Z,100.00
2024-05-09T06:03:29.686Z,100.00
2024-05-09T06:06:16.223Z,100.00
2024-05-09T06:09:02.815Z,100.00
2024-05-09T06:11:49.571Z,100.00
2024-05-09T06:14:36.219Z,100.00
2024-05-09T06:17:22.771Z,100.00
2024-05-09T06:20:13.464Z,100.00
2024-05-09T06:23:07.206Z,100.00
2024-05-09T06:25:53.670Z,100.00
2024-05-09T06:28:40.345Z,100.00
2024-05-09T06:31:26.823Z,100.00
2024-05-09T06:34:13.646Z,100.00
2024-05-09T06:37:00.045Z,100.00
2024-05-09T06:39:46.768Z,98.78
2024-05-09T06:42:33.229Z,98.18
2024-05-09T06:45:19.923Z,94.12
2024-05-09T06:48:07.444Z,97.36
2024-05-09T06:50:54.241Z,95.15
2024-05-09T06:53:40.921Z,91.61
2024-05-09T06:56:27.217Z,92.20
2024-05-09T06:59:13.785Z,92.20
2024-05-09T07:02:00.499Z,93.59
2024-05-09T07:04:47.344Z,89.55
2024-05-09T07:07:33.651Z,91.35
2024-05-09T07:10:28.509Z,91.58
2024-05-09T07:13:19.011Z,90.19
2024-05-09T07:16:05.505Z,89.91
2024-05-09T07:18:55.050Z,90.06
2024-05-09T07:21:41.480Z,87.36
2024-05-09T07:24:28.204Z,87.68
2024-05-09T07:27:15.036Z,82.57
2024-05-09T07:30:01.580Z,79.81
2024-05-09T07:32:48.322Z,81.33
2024-05-09T07:35:35.825Z,83.05
2024-05-09T07:38:22.582Z,81.08
2024-05-09T07:41:09.142Z,79.60
2024-05-09T07:43:55.918Z,78.38
2024-05-09T07:53:30.360Z,79.86
2024-05-09T07:55:29.177Z,79.35
2024-05-09T07:58:15.693Z,75.07
2024-05-09T08:01:05.274Z,75.33
2024-05-09T08:03:53.963Z,78.32
2024-05-09T08:06:40.248Z,76.89
2024-05-09T08:09:26.849Z,77.61
2024-05-09T08:12:14.210Z,73.86
2024-05-09T08:15:00.863Z,73.96
2024-05-09T08:17:47.757Z,74.73
2024-05-09T08:20:35.455Z,68.60
2024-05-09T08:23:23.597Z,67.52
2024-05-09T08:26:11.055Z,67.07
2024-05-09T08:28:57.754Z,66.23
2024-05-09T08:31:44.407Z,65.62
2024-05-09T08:34:30.776Z,67.07
2024-05-09T08:37:22.378Z,64.54
2024-05-09T08:40:19.906Z,64.67
2024-05-09T08:43:15.336Z,65.02
2024-05-09T08:46:02.728Z,65.56
2024-05-09T08:48:50.286Z,63.54
2024-05-09T08:51:36.763Z,63.49
2024-05-09T08:54:23.294Z,62.59
2024-05-09T08:57:09.931Z,61.40
2024-05-09T09:00:00.486Z,61.56
2024-05-09T09:02:49.928Z,60.81
2024-05-09T09:05:38.905Z,59.36
2024-05-09T09:08:26.997Z,59.13
2024-05-09T09:11:13.643Z,61.79
2024-05-09T09:14:00.163Z,61.84
2024-05-09T09:16:46.728Z,60.54
2024-05-09T09:19:33.268Z,60.64
2024-05-09T09:22:21.693Z,58.76
2024-05-09T09:25:07.958Z,58.69
2024-05-09T09:27:54.332Z,57.89
2024-05-09T09:30:41.640Z,58.86
2024-05-09T09:33:31.255Z,60.61
2024-05-09T09:36:18.481Z,58.19
2024-05-09T09:39:05.300Z,56.71
2024-05-09T09:41:52.576Z,56.60
2024-05-09T09:44:42.275Z,56.99
2024-05-09T09:47:32.598Z,55.78
2024-05-09T09:50:27.343Z,54.26
2024-05-09T09:53:19.505Z,54.44
2024-05-09T09:56:08.049Z,52.21
2024-05-09T09:58:57.616Z,52.25
2024-05-09T10:01:47.377Z,51.67
2024-05-09T10:04:33.829Z,53.37
2024-05-09T10:07:22.238Z,52.91
2024-05-09T10:10:13.769Z,52.53
2024-05-09T10:13:05.878Z,52.71
2024-05-09T10:15:54.679Z,51.62
2024-05-09T10:18:41.803Z,50.84
2024-05-09T10:21:28.762Z,50.98
2024-05-09T10:24:18.908Z,52.82
2024-05-09T10:27:05.208Z,53.14
2024-05-09T10:29:53.227Z,51.21
2024-05-09T10:32:41.244Z,50.52
2024-05-09T10:35:32.537Z,52.08
2024-05-09T10:38:18.848Z,50.44
2024-05-09T10:41:06.726Z,50.06
2024-05-09T10:43:53.213Z,50.08
2024-05-09T10:46:39.815Z,49.16
2024-05-09T10:49:26.491Z,48.82
2024-05-09T10:52:13.038Z,49.24
2024-05-09T10:55:01.042Z,49.77
2024-05-09T10:57:48.230Z,48.25
2024-05-09T11:00:36.524Z,47.75
2024-05-09T11:03:24.768Z,47.88
2024-05-09T11:06:11.890Z,46.75
2024-05-09T11:08:58.533Z,46.77
2024-05-09T11:11:45.388Z,46.55
2024-05-09T11:14:32.184Z,47.00
2024-05-09T11:17:19.181Z,45.87
2024-05-09T11:20:13.396Z,44.95
2024-05-09T11:23:09.311Z,45.63
2024-05-09T11:25:57.956Z,45.86
2024-05-09T11:28:45.688Z,44.88
2024-05-09T11:31:32.761Z,44.47
2024-05-09T11:34:19.413Z,44.10
2024-05-09T11:37:05.762Z,43.48
2024-05-09T11:39:53.854Z,43.38
2024-05-09T11:42:40.527Z,43.49
2024-05-09T11:45:27.110Z,44.70
2024-05-09T11:48:13.823Z,44.10
2024-05-09T11:51:00.342Z,45.04
2024-05-09T11:53:46.964Z,44.60
2024-05-09T11:56:33.626Z,45.13
2024-05-09T11:59:19.881Z,44.47
2024-05-09T12:02:06.555Z,44.31
2024-05-09T12:04:53.074Z,43.14
2024-05-09T12:07:39.834Z,42.37
2024-05-09T12:10:32.489Z,42.96
2024-05-09T12:13:21.682Z,42.75
2024-05-09T12:16:08.811Z,43.63
2024-05-09T12:18:56.215Z,44.80
2024-05-09T12:21:42.605Z,44.18
2024-05-09T12:24:30.501Z,43.46
2024-05-09T12:27:16.790Z,43.52
2024-05-09T12:30:04.630Z,43.36
2024-05-09T12:32:53.573Z,42.54
2024-05-09T12:35:41.094Z,43.42
2024-05-09T12:38:28.188Z,43.39
2024-05-09T12:41:14.864Z,42.08
2024-05-09T12:44:01.421Z,42.97
2024-05-09T12:46:48.031Z,44.53
2024-05-09T12:49:35.010Z,40.76
2024-05-09T12:52:21.298Z,39.31
2024-05-09T12:55:08.259Z,40.76
2024-05-09T12:57:54.600Z,40.49
2024-05-09T13:00:41.086Z,41.59
2024-05-09T13:03:27.624Z,42.45
2024-05-09T13:06:14.064Z,42.77
2024-05-09T13:09:00.740Z,42.25
2024-05-09T13:11:47.594Z,42.51
2024-05-09T13:14:34.337Z,41.59
2024-05-09T13:17:20.706Z,41.32
2024-05-09T13:20:11.982Z,41.01
2024-05-09T13:23:06.724Z,41.67
2024-05-09T13:25:54.312Z,41.94
2024-05-09T13:28:41.220Z,43.46
2024-05-09T13:31:27.589Z,43.16
2024-05-09T13:34:14.201Z,42.00
2024-05-09T13:37:00.883Z,41.64
2024-05-09T13:39:47.168Z,41.25
2024-05-09T13:42:33.902Z,40.81
2024-05-09T13:45:20.616Z,41.85
2024-05-09T13:48:09.554Z,41.57
2024-05-09T13:50:56.027Z,39.19
2024-05-09T13:53:42.336Z,40.31
2024-05-09T13:56:28.940Z,39.86
2024-05-09T13:59:15.612Z,38.78
2024-05-09T14:02:02.508Z,39.95
2024-05-09T14:04:49.090Z,40.31
2024-05-09T14:07:35.520Z,41.70
2024-05-09T14:10:28.485Z,41.89
2024-05-09T14:13:17.407Z,40.99
2024-05-09T14:16:04.132Z,41.56
2024-05-09T14:18:50.377Z,42.07
2024-05-09T14:21:37.130Z,42.10
2024-05-09T14:24:23.728Z,42.12
2024-05-09T14:27:10.308Z,42.25
2024-05-09T14:29:57.008Z,42.67
2024-05-09T14:32:43.670Z,42.62
2024-05-09T14:35:30.411Z,43.11
2024-05-09T14:38:17.039Z,41.57
2024-05-09T14:41:03.989Z,41.46
2024-05-09T14:43:50.483Z,41.47
2024-05-09T14:46:36.948Z,41.61
2024-05-09T14:49:23.605Z,41.19
2024-05-09T14:52:10.312Z,41.48
2024-05-09T14:55:00.348Z,41.70
2024-05-09T14:57:47.543Z,40.90
2024-05-09T15:00:36.693Z,41.26
2024-05-09T15:03:24.303Z,41.55
2024-05-09T15:06:10.982Z,41.93
2024-05-09T15:08:57.802Z,40.92
2024-05-09T15:11:44.221Z,42.51
2024-05-09T15:14:30.579Z,42.27
2024-05-09T15:17:17.339Z,42.45
2024-05-09T15:20:09.092Z,43.23
2024-05-09T15:22:56.392Z,44.31
2024-05-09T15:25:44.718Z,44.17
2024-05-09T15:28:31.285Z,45.30
2024-05-09T15:31:18.144Z,43.21
2024-05-09T15:34:05.102Z,41.86
2024-05-09T15:36:51.752Z,42.29
2024-05-09T15:39:38.352Z,42.65
2024-05-09T15:42:24.866Z,42.35
2024-05-09T15:45:11.355Z,43.55
2024-05-09T15:47:58.556Z,43.01
2024-05-09T15:50:45.389Z,43.79
2024-05-09T15:53:31.845Z,44.01
2024-05-09T15:56:18.479Z,43.98
2024-05-09T15:59:04.957Z,44.64
2024-05-09T16:01:51.501Z,45.00
2024-05-09T16:04:38.400Z,43.62
2024-05-09T16:07:25.178Z,43.83
2024-05-09T16:10:19.701Z,43.81
2024-05-09T16:13:07.014Z,43.12
2024-05-09T16:15:54.130Z,43.36
2024-05-09T16:18:40.885Z,43.63
2024-05-09T16:21:27.066Z,43.89
2024-05-09T16:24:13.877Z,43.53
2024-05-09T16:27:00.318Z,43.61
2024-05-09T16:29:46.699Z,43.44
2024-05-09T16:32:33.545Z,45.37
2024-05-09T16:35:19.883Z,44.24
2024-05-09T16:38:06.973Z,42.87
2024-05-09T16:40:53.879Z,43.53
2024-05-09T16:43:40.284Z,44.62
2024-05-09T16:46:28.134Z,43.79
2024-05-09T16:49:14.539Z,43.67
2024-05-09T16:52:00.819Z,44.26
2024-05-09T16:54:47.475Z,44.92
2024-05-09T16:57:34.135Z,44.42
2024-05-09T17:00:31.099Z,44.22
2024-05-09T17:03:25.772Z,44.07
2024-05-09T17:06:12.294Z,43.95
2024-05-09T17:09:07.970Z,44.08
2024-05-09T17:11:57.942Z,44.39
2024-05-09T17:14:45.200Z,44.76
2024-05-09T17:17:31.695Z,44.57
2024-05-09T17:20:28.900Z,44.37
2024-05-09T17:23:20.249Z,44.41
2024-05-09T17:26:06.600Z,44.78
2024-05-09T17:28:53.271Z,45.19
2024-05-09T17:31:39.791Z,45.54
2024-05-09T17:34:26.986Z,45.27
2024-05-09T17:37:13.804Z,46.18
2024-05-09T17:40:00.385Z,45.92
2024-05-09T17:42:46.864Z,45.74
2024-05-09T17:45:33.826Z,45.70
2024-05-09T17:48:20.853Z,46.97
2024-05-09T17:51:07.401Z,47.25
2024-05-09T17:53:53.960Z,47.29
2024-05-09T17:56:40.839Z,47.98
2024-05-09T17:59:28.264Z,48.01
2024-05-09T18:02:14.931Z,48.78
2024-05-09T18:05:01.811Z,49.43
2024-05-09T18:07:48.380Z,49.37
2024-05-09T18:10:38.545Z,50.31
2024-05-09T18:13:26.857Z,50.55
2024-05-09T18:16:14.009Z,50.90
2024-05-09T18:19:00.587Z,51.10
2024-05-09T18:21:46.936Z,50.79
2024-05-09T18:24:33.707Z,51.29
2024-05-09T18:27:20.430Z,51.89
2024-05-09T18:30:21.224Z,52.38
2024-05-09T18:33:14.547Z,52.74
2024-05-09T18:36:01.756Z,53.24
2024-05-09T18:38:49.323Z,53.50
2024-05-09T18:41:35.702Z,53.38
2024-05-09T18:44:22.288Z,54.01
2024-05-09T18:47:10.394Z,54.19
2024-05-09T18:49:57.014Z,54.56
2024-05-09T18:52:43.600Z,54.96
2024-05-09T18:55:30.141Z,55.04
2024-05-09T18:58:17.719Z,55.18
2024-05-09T19:01:04.493Z,55.41
2024-05-09T19:03:51.495Z,55.77
2024-05-09T19:06:38.870Z,55.52
2024-05-09T19:09:25.144Z,55.57
2024-05-09T19:12:12.092Z,56.22
2024-05-09T19:14:58.451Z,56.20
2024-05-09T19:17:45.115Z,56.66
2024-05-09T19:20:34.670Z,57.29
2024-05-09T19:23:22.851Z,57.67
2024-05-09T19:26:09.931Z,59.65
2024-05-09T19:28:56.633Z,62.08
2024-05-09T19:31:43.290Z,64.09
2024-05-09T19:34:29.869Z,66.66
2024-05-09T19:37:16.465Z,69.33
2024-05-09T19:40:03.516Z,70.21
2024-05-09T19:42:52.097Z,71.18
2024-05-09T19:45:38.890Z,72.78
2024-05-09T19:48:25.453Z,73.92
2024-05-09T19:51:12.039Z,76.35
2024-05-09T19:53:58.644Z,77.61
2024-05-09T19:56:45.359Z,79.56
2024-05-09T19:59:31.858Z,79.76
2024-05-09T20:02:18.518Z,81.15
2024-05-09T20:05:05.611Z,82.76
2024-05-09T20:07:51.949Z,84.02
2024-05-09T20:10:38.998Z,84.58
2024-05-09T20:13:25.348Z,87.03
2024-05-09T20:16:12.003Z,88.81
2024-05-09T20:18:58.733Z,88.52
2024-05-09T20:21:45.436Z,90.40
2024-05-09T20:24:31.944Z,90.51
2024-05-09T20:27:18.313Z,89.86
2024-05-09T20:30:09.748Z,90.06
2024-05-09T20:32:58.479Z,92.35
2024-05-09T20:35:45.239Z,92.42
2024-05-09T20:38:31.393Z,93.73
2024-05-09T20:41:18.079Z,95.00
2024-05-09T20:44:04.839Z,95.98
2024-05-09T20:46:51.114Z,96.98
2024-05-09T20:49:37.991Z,98.51
2024-05-09T20:52:24.658Z,100.00
2024-05-09T20:55:10.948Z,100.00
2024-05-09T20:57:57.945Z,100.00
2024-05-09T21:00:46.082Z,100.00
2024-05-09T21:03:38.095Z,100.00
2024-05-09T21:06:24.327Z,100.00
2024-05-09T21:09:10.876Z,100.00
2024-05-09T21:11:57.581Z,100.00
2024-05-09T21:14:44.498Z,100.00
2024-05-09T21:17:31.232Z,100.00
2024-05-09T21:20:23.905Z,100.00
2024-05-09T21:23:15.570Z,100.00
2024-05-09T21:26:02.098Z,100.00
2024-05-09T21:28:48.657Z,100.00
2024-05-09T21:31:35.630Z,100.00
2024-05-09T21:34:22.273Z,100.00
2024-05-09T21:37:08.854Z,100.00
2024-05-09T21:39:55.439Z,100.00
2024-05-09T21:42:42.112Z,100.00
2024-05-09T21:45:28.648Z,100.00
2024-05-09T21:48:15.548Z,100.00
2024-05-09T21:51:01.846Z,100.00
2024-05-09T21:53:49.035Z,100.00
2024-05-09T21:56:35.279Z,100.00
2024-05-09T21:59:22.008Z,100.00
2024-05-09T22:02:09.098Z,100.00
2024-05-09T22:04:56.208Z,100.00
2024-05-09T22:07:43.060Z,100.00
2024-05-09T22:10:34.262Z,100.00
2024-05-09T22:13:22.936Z,100.00
2024-05-09T22:16:09.589Z,100.00
2024-05-09T22:18:56.530Z,100.00
2024-05-09T22:21:43.024Z,100.00
2024-05-09T22:24:29.234Z,100.00
2024-05-09T22:27:15.729Z,100.00
2024-05-09T22:30:02.830Z,100.00
2024-05-09T22:32:50.283Z,100.00
2024-05-09T22:35:36.984Z,100.00
2024-05-09T22:38:23.819Z,100.00
2024-05-09T22:41:10.354Z,100.00
2024-05-09T22:43:57.107Z,100.00
2024-05-09T22:46:43.614Z,100.00
2024-05-09T22:49:29.915Z,100.00
2024-05-09T22:52:16.709Z,100.00
2024-05-09T22:55:03.656Z,100.00
2024-05-09T22:57:50.334Z,100.00
2024-05-09T23:00:37.157Z,100.00
2024-05-09T23:03:23.758Z,100.00
2024-05-09T23:06:10.289Z,100.00
2024-05-09T23:08:56.847Z,100.00
2024-05-09T23:11:45.114Z,100.00
2024-05-09T23:14:31.603Z,100.00
2024-05-09T23:17:19.280Z,100.00
2024-05-09T23:20:08.877Z,100.00
2024-05-09T23:22:57.645Z,100.00
2024-05-09T23:25:44.653Z,100.00
2024-05-09T23:28:31.735Z,100.00
2024-05-09T23:31:18.257Z,100.00
2024-05-09T23:34:04.971Z,100.00
2024-05-09T23:36:51.437Z,100.00
2024-05-09T23:39:38.065Z,100.00
2024-05-09T23:42:24.754Z,100.00
2024-05-09T23:45:11.247Z,100.00
2024-05-09T23:47:57.972Z,100.00
2024-05-09T23:50:44.479Z,100.00
2024-05-09T23:53:31.035Z,100.00
2024-05-09T23:56:18.612Z,100.00
2024-05-09T23:59:05.167Z,100.00
